sensor_id;sensor_type;location;lat;lon;timestamp;pressure;altitude;pressure_sealevel;temperature;humidity
61474;BME280;53694;49.784;30.150;2023-09-08T00:00:47;100614.98;;;13.18;67.45
61474;BME280;53694;49.784;30.150;2023-09-08T00:01:48;100619.94;;;12.96;67.38
61474;BME280;53694;49.784;30.150;2023-09-08T00:02:50;100619.36;;;12.75;67.87
61474;BME280;53694;49.784;30.150;2023-09-08T00:03:51;100620.80;;;12.57;68.42
61474;BME280;53694;49.784;30.150;2023-09-08T00:04:54;100622.25;;;12.38;68.85
61474;BME280;53694;49.784;30.150;2023-09-08T00:05:56;100624.92;;;12.22;69.37
61474;BME280;53694;49.784;30.150;2023-09-08T00:06:57;100623.70;;;12.08;70.06
61474;BME280;53694;49.784;30.150;2023-09-08T00:07:59;100624.08;;;11.94;70.16
61474;BME280;53694;49.784;30.150;2023-09-08T00:09:02;100623.59;;;11.80;70.36
61474;BME280;53694;49.784;30.150;2023-09-08T00:10:05;100621.08;;;11.74;70.88
61474;BME280;53694;49.784;30.150;2023-09-08T00:11:06;100627.28;;;11.84;70.82
61474;BME280;53694;49.784;30.150;2023-09-08T00:12:08;100626.70;;;12.03;69.90
61474;BME280;53694;49.784;30.150;2023-09-08T00:13:10;100623.44;;;12.25;69.57
61474;BME280;53694;49.784;30.150;2023-09-08T00:14:11;100630.69;;;12.58;68.05
61474;BME280;53694;49.784;30.150;2023-09-08T00:15:13;100617.14;;;12.81;67.14
61474;BME280;53694;49.784;30.150;2023-09-08T00:16:15;100630.06;;;12.92;66.00
61474;BME280;53694;49.784;30.150;2023-09-08T00:17:16;100628.54;;;12.95;66.30
61474;BME280;53694;49.784;30.150;2023-09-08T00:18:18;100624.88;;;12.91;66.39
61474;BME280;53694;49.784;30.150;2023-09-08T00:19:19;100632.19;;;12.83;66.59
61474;BME280;53694;49.784;30.150;2023-09-08T00:20:21;100627.16;;;12.73;66.61
61474;BME280;53694;49.784;30.150;2023-09-08T00:21:24;100648.56;;;12.64;67.18
61474;BME280;53694;49.784;30.150;2023-09-08T00:22:26;100628.52;;;12.51;66.89
61474;BME280;53694;49.784;30.150;2023-09-08T00:23:27;100627.75;;;12.38;67.71
61474;BME280;53694;49.784;30.150;2023-09-08T00:24:29;100630.54;;;12.26;68.52
61474;BME280;53694;49.784;30.150;2023-09-08T00:25:30;100628.61;;;12.14;68.87
61474;BME280;53694;49.784;30.150;2023-09-08T00:26:32;100629.90;;;12.05;69.44
61474;BME280;53694;49.784;30.150;2023-09-08T00:27:34;100642.20;;;11.95;69.74
61474;BME280;53694;49.784;30.150;2023-09-08T00:28:35;100632.47;;;11.85;69.87
61474;BME280;53694;49.784;30.150;2023-09-08T00:29:37;100628.98;;;11.76;70.40
61474;BME280;53694;49.784;30.150;2023-09-08T00:30:39;100628.30;;;11.67;70.19
61474;BME280;53694;49.784;30.150;2023-09-08T00:32:42;100634.95;;;11.54;71.41
61474;BME280;53694;49.784;30.150;2023-09-08T00:33:44;100638.06;;;11.64;71.23
61474;BME280;53694;49.784;30.150;2023-09-08T00:34:45;100634.75;;;11.83;70.97
61474;BME280;53694;49.784;30.150;2023-09-08T00:35:50;100639.55;;;12.11;70.72
61474;BME280;53694;49.784;30.150;2023-09-08T00:36:52;100635.66;;;12.40;69.89
61474;BME280;53694;49.784;30.150;2023-09-08T00:37:53;100634.99;;;12.71;68.87
61474;BME280;53694;49.784;30.150;2023-09-08T00:38:55;100636.91;;;12.98;67.82
61474;BME280;53694;49.784;30.150;2023-09-08T00:39:57;100627.83;;;13.26;66.53
61474;BME280;53694;49.784;30.150;2023-09-08T00:40:58;100627.83;;;13.26;66.53
61474;BME280;53694;49.784;30.150;2023-09-08T00:42:00;100632.09;;;13.23;66.24
61474;BME280;53694;49.784;30.150;2023-09-08T00:43:02;100632.12;;;13.11;66.38
61474;BME280;53694;49.784;30.150;2023-09-08T00:44:04;100635.68;;;12.96;66.90
61474;BME280;53694;49.784;30.150;2023-09-08T00:45:06;100628.06;;;12.77;67.41
61474;BME280;53694;49.784;30.150;2023-09-08T00:46:08;100639.03;;;12.61;67.92
61474;BME280;53694;49.784;30.150;2023-09-08T00:47:10;100632.22;;;12.43;68.45
61474;BME280;53694;49.784;30.150;2023-09-08T00:48:12;100637.31;;;12.29;68.74
61474;BME280;53694;49.784;30.150;2023-09-08T00:49:14;100637.67;;;12.15;69.18
61474;BME280;53694;49.784;30.150;2023-09-08T00:50:15;100637.72;;;12.03;69.84
61474;BME280;53694;49.784;30.150;2023-09-08T00:51:17;100636.93;;;11.90;70.61
61474;BME280;53694;49.784;30.150;2023-09-08T00:52:20;100636.55;;;11.79;71.14
61474;BME280;53694;49.784;30.150;2023-09-08T00:53:21;100639.06;;;11.72;71.62
61474;BME280;53694;49.784;30.150;2023-09-08T00:54:23;100640.69;;;11.73;71.82
61474;BME280;53694;49.784;30.150;2023-09-08T00:55:25;100644.36;;;11.89;71.58
61474;BME280;53694;49.784;30.150;2023-09-08T00:56:28;100637.34;;;12.16;70.86
61474;BME280;53694;49.784;30.150;2023-09-08T00:57:31;100644.61;;;12.49;70.03
61474;BME280;53694;49.784;30.150;2023-09-08T00:58:33;100632.63;;;12.85;68.76
61474;BME280;53694;49.784;30.150;2023-09-08T00:59:35;100644.16;;;13.19;67.52
61474;BME280;53694;49.784;30.150;2023-09-08T01:00:37;100646.52;;;13.48;66.47
61474;BME280;53694;49.784;30.150;2023-09-08T01:01:38;100649.80;;;13.70;65.75
61474;BME280;53694;49.784;30.150;2023-09-08T01:02:40;100654.34;;;13.78;65.16
61474;BME280;53694;49.784;30.150;2023-09-08T01:03:41;100647.22;;;13.77;65.13
61474;BME280;53694;49.784;30.150;2023-09-08T01:04:44;100650.87;;;13.65;65.12
61474;BME280;53694;49.784;30.150;2023-09-08T01:05:46;100644.13;;;13.47;65.40
61474;BME280;53694;49.784;30.150;2023-09-08T01:06:49;100645.52;;;13.25;65.66
61474;BME280;53694;49.784;30.150;2023-09-08T01:07:52;100646.87;;;13.03;66.29
61474;BME280;53694;49.784;30.150;2023-09-08T01:08:55;100646.30;;;12.82;66.81
61474;BME280;53694;49.784;30.150;2023-09-08T01:09:57;100649.61;;;12.59;67.45
61474;BME280;53694;49.784;30.150;2023-09-08T01:10:59;100650.16;;;12.37;68.09
61474;BME280;53694;49.784;30.150;2023-09-08T01:12:03;100647.56;;;12.16;68.77
61474;BME280;53694;49.784;30.150;2023-09-08T01:13:06;100644.59;;;11.96;69.48
61474;BME280;53694;49.784;30.150;2023-09-08T01:14:08;100655.02;;;11.79;70.41
61474;BME280;53694;49.784;30.150;2023-09-08T01:15:09;100645.04;;;11.62;71.32
61474;BME280;53694;49.784;30.150;2023-09-08T01:16:11;100646.86;;;11.45;72.14
61474;BME280;53694;49.784;30.150;2023-09-08T01:17:13;100638.84;;;11.40;73.11
61474;BME280;53694;49.784;30.150;2023-09-08T01:18:14;100643.43;;;11.48;73.28
61474;BME280;53694;49.784;30.150;2023-09-08T01:19:16;100644.36;;;11.65;72.92
61474;BME280;53694;49.784;30.150;2023-09-08T01:20:53;100638.86;;;11.89;72.85
61474;BME280;53694;49.784;30.150;2023-09-08T01:23:24;100638.70;;;12.63;71.09
61474;BME280;53694;49.784;30.150;2023-09-08T01:25:43;100643.84;;;13.36;68.71
61474;BME280;53694;49.784;30.150;2023-09-08T01:26:42;100644.00;;;13.59;67.57
61474;BME280;53694;49.784;30.150;2023-09-08T01:27:46;100648.20;;;13.69;66.76
61474;BME280;53694;49.784;30.150;2023-09-08T01:28:49;100644.09;;;13.63;66.51
61474;BME280;53694;49.784;30.150;2023-09-08T01:29:52;100640.54;;;13.46;66.80
61474;BME280;53694;49.784;30.150;2023-09-08T01:30:55;100642.75;;;13.25;67.14
61474;BME280;53694;49.784;30.150;2023-09-08T01:31:57;100635.31;;;12.97;67.81
61474;BME280;53694;49.784;30.150;2023-09-08T01:33:00;100640.94;;;12.73;68.49
61474;BME280;53694;49.784;30.150;2023-09-08T01:34:02;100638.27;;;12.48;69.17
61474;BME280;53694;49.784;30.150;2023-09-08T01:35:04;100640.77;;;12.25;69.65
61474;BME280;53694;49.784;30.150;2023-09-08T01:36:07;100641.71;;;12.05;70.16
61474;BME280;53694;49.784;30.150;2023-09-08T01:37:09;100637.50;;;11.83;70.80
61474;BME280;53694;49.784;30.150;2023-09-08T01:38:10;100637.23;;;11.64;71.65
61474;BME280;53694;49.784;30.150;2023-09-08T01:39:12;100633.34;;;11.53;72.49
61474;BME280;53694;49.784;30.150;2023-09-08T01:40:14;100635.42;;;11.56;72.81
61474;BME280;53694;49.784;30.150;2023-09-08T01:41:16;100633.00;;;11.66;72.60
61474;BME280;53694;49.784;30.150;2023-09-08T01:42:18;100639.21;;;11.88;72.05
61474;BME280;53694;49.784;30.150;2023-09-08T01:43:19;100629.66;;;12.10;71.66
61474;BME280;53694;49.784;30.150;2023-09-08T01:44:21;100632.36;;;12.34;71.09
61474;BME280;53694;49.784;30.150;2023-09-08T01:45:23;100633.44;;;12.58;70.33
61474;BME280;53694;49.784;30.150;2023-09-08T01:46:24;100602.56;;;12.80;69.65
61474;BME280;53694;49.784;30.150;2023-09-08T01:47:27;100636.22;;;13.01;68.77
61474;BME280;53694;49.784;30.150;2023-09-08T01:48:29;100631.53;;;13.18;67.75
61474;BME280;53694;49.784;30.150;2023-09-08T01:49:30;100618.39;;;13.27;67.19
61474;BME280;53694;49.784;30.150;2023-09-08T01:50:32;100631.72;;;13.25;66.83
61474;BME280;53694;49.784;30.150;2023-09-08T01:51:34;100625.62;;;13.04;66.87
61474;BME280;53694;49.784;30.150;2023-09-08T01:52:35;100637.88;;;12.90;67.34
61474;BME280;53694;49.784;30.150;2023-09-08T01:53:37;100631.66;;;12.65;67.80
61474;BME280;53694;49.784;30.150;2023-09-08T01:54:38;100631.78;;;12.41;68.33
61474;BME280;53694;49.784;30.150;2023-09-08T01:55:39;100635.89;;;11.94;69.58
61474;BME280;53694;49.784;30.150;2023-09-08T01:56:41;100635.89;;;11.94;69.58
61474;BME280;53694;49.784;30.150;2023-09-08T01:57:43;100634.39;;;11.72;70.27
61474;BME280;53694;49.784;30.150;2023-09-08T01:58:45;100623.50;;;11.51;70.85
61474;BME280;53694;49.784;30.150;2023-09-08T01:59:46;100628.39;;;11.34;71.46
61474;BME280;53694;49.784;30.150;2023-09-08T02:00:50;100628.05;;;11.23;72.15
61474;BME280;53694;49.784;30.150;2023-09-08T02:01:51;100625.74;;;11.25;72.49
61474;BME280;53694;49.784;30.150;2023-09-08T02:02:53;100628.19;;;11.39;72.47
61474;BME280;53694;49.784;30.150;2023-09-08T02:03:54;100624.86;;;11.58;71.84
61474;BME280;53694;49.784;30.150;2023-09-08T02:04:56;100633.80;;;11.79;71.51
61474;BME280;53694;49.784;30.150;2023-09-08T02:05:57;100629.10;;;12.04;71.27
61474;BME280;53694;49.784;30.150;2023-09-08T02:06:59;100622.39;;;12.30;70.84
61474;BME280;53694;49.784;30.150;2023-09-08T02:08:00;100625.17;;;12.58;69.90
61474;BME280;53694;49.784;30.150;2023-09-08T02:09:02;100623.09;;;12.83;69.01
61474;BME280;53694;49.784;30.150;2023-09-08T02:10:04;100619.67;;;13.01;68.00
61474;BME280;53694;49.784;30.150;2023-09-08T02:11:06;100623.16;;;13.14;67.58
61474;BME280;53694;49.784;30.150;2023-09-08T02:12:07;100615.68;;;13.15;67.25
61474;BME280;53694;49.784;30.150;2023-09-08T02:13:09;100616.21;;;13.05;67.20
61474;BME280;53694;49.784;30.150;2023-09-08T02:14:11;100617.67;;;12.86;67.40
61474;BME280;53694;49.784;30.150;2023-09-08T02:15:12;100621.37;;;12.62;67.95
61474;BME280;53694;49.784;30.150;2023-09-08T02:16:14;100611.59;;;12.37;68.02
61474;BME280;53694;49.784;30.150;2023-09-08T02:17:16;100621.39;;;12.10;68.33
61474;BME280;53694;49.784;30.150;2023-09-08T02:18:17;100618.70;;;11.85;69.34
61474;BME280;53694;49.784;30.150;2023-09-08T02:19:19;100615.34;;;11.67;70.15
61474;BME280;53694;49.784;30.150;2023-09-08T02:20:21;100620.04;;;11.55;70.61
61474;BME280;53694;49.784;30.150;2023-09-08T02:21:23;100621.18;;;11.41;71.23
61474;BME280;53694;49.784;30.150;2023-09-08T02:22:24;100624.61;;;11.38;71.68
61474;BME280;53694;49.784;30.150;2023-09-08T02:23:26;100621.78;;;11.47;71.93
61474;BME280;53694;49.784;30.150;2023-09-08T02:24:27;100623.95;;;11.66;71.86
61474;BME280;53694;49.784;30.150;2023-09-08T02:25:29;100623.97;;;11.90;71.23
61474;BME280;53694;49.784;30.150;2023-09-08T02:26:31;100623.22;;;12.18;70.55
61474;BME280;53694;49.784;30.150;2023-09-08T02:27:32;100615.95;;;12.66;68.67
61474;BME280;53694;49.784;30.150;2023-09-08T02:28:33;100615.95;;;12.66;68.67
61474;BME280;53694;49.784;30.150;2023-09-08T02:29:35;100619.38;;;12.91;68.17
61474;BME280;53694;49.784;30.150;2023-09-08T02:30:37;100609.97;;;13.08;67.06
61474;BME280;53694;49.784;30.150;2023-09-08T02:31:38;100615.95;;;13.10;66.71
61474;BME280;53694;49.784;30.150;2023-09-08T02:32:39;100613.79;;;13.03;66.66
61474;BME280;53694;49.784;30.150;2023-09-08T02:33:41;100616.98;;;12.89;66.79
61474;BME280;53694;49.784;30.150;2023-09-08T02:34:42;100610.19;;;12.71;67.14
61474;BME280;53694;49.784;30.150;2023-09-08T02:35:44;100608.43;;;12.50;67.64
61474;BME280;53694;49.784;30.150;2023-09-08T02:36:46;100618.04;;;12.29;68.08
61474;BME280;53694;49.784;30.150;2023-09-08T02:37:47;100609.47;;;12.06;68.69
61474;BME280;53694;49.784;30.150;2023-09-08T02:38:48;100608.02;;;11.84;69.28
61474;BME280;53694;49.784;30.150;2023-09-08T02:39:50;100612.47;;;11.64;69.93
61474;BME280;53694;49.784;30.150;2023-09-08T02:40:51;100608.23;;;11.42;70.42
61474;BME280;53694;49.784;30.150;2023-09-08T02:41:53;100613.63;;;11.26;70.86
61474;BME280;53694;49.784;30.150;2023-09-08T02:42:54;100618.17;;;11.10;71.39
61474;BME280;53694;49.784;30.150;2023-09-08T02:43:56;100617.56;;;11.04;72.13
61474;BME280;53694;49.784;30.150;2023-09-08T02:44:58;100620.22;;;11.13;72.31
61474;BME280;53694;49.784;30.150;2023-09-08T02:45:59;100617.74;;;11.32;72.01
61474;BME280;53694;49.784;30.150;2023-09-08T02:47:01;100616.61;;;11.58;71.07
61474;BME280;53694;49.784;30.150;2023-09-08T02:48:02;100618.23;;;11.83;70.28
61474;BME280;53694;49.784;30.150;2023-09-08T02:49:05;100619.80;;;12.09;69.50
61474;BME280;53694;49.784;30.150;2023-09-08T02:50:07;100614.23;;;12.33;69.03
61474;BME280;53694;49.784;30.150;2023-09-08T02:51:09;100616.08;;;12.57;68.03
61474;BME280;53694;49.784;30.150;2023-09-08T02:52:11;100618.45;;;12.71;67.32
61474;BME280;53694;49.784;30.150;2023-09-08T02:53:12;100621.21;;;12.71;67.13
61474;BME280;53694;49.784;30.150;2023-09-08T02:54:14;100616.19;;;12.61;67.16
61474;BME280;53694;49.784;30.150;2023-09-08T02:55:15;100613.73;;;12.43;67.74
61474;BME280;53694;49.784;30.150;2023-09-08T02:56:17;100626.55;;;12.23;68.31
61474;BME280;53694;49.784;30.150;2023-09-08T02:57:19;100627.83;;;12.01;68.96
61474;BME280;53694;49.784;30.150;2023-09-08T02:58:20;100618.20;;;11.59;70.17
61474;BME280;53694;49.784;30.150;2023-09-08T02:59:22;100618.20;;;11.59;70.17
61474;BME280;53694;49.784;30.150;2023-09-08T03:00:24;100624.61;;;11.38;71.04
61474;BME280;53694;49.784;30.150;2023-09-08T03:01:27;100611.55;;;11.23;71.58
61474;BME280;53694;49.784;30.150;2023-09-08T03:02:30;100618.64;;;11.24;71.82
61474;BME280;53694;49.784;30.150;2023-09-08T03:03:32;100612.72;;;11.34;71.84
61474;BME280;53694;49.784;30.150;2023-09-08T03:04:33;100619.12;;;11.50;71.78
61474;BME280;53694;49.784;30.150;2023-09-08T03:05:35;100616.25;;;11.71;71.51
61474;BME280;53694;49.784;30.150;2023-09-08T03:06:36;100619.38;;;11.94;71.03
61474;BME280;53694;49.784;30.150;2023-09-08T03:07:38;100616.11;;;12.17;70.28
61474;BME280;53694;49.784;30.150;2023-09-08T03:08:39;100608.03;;;12.36;69.47
61474;BME280;53694;49.784;30.150;2023-09-08T03:09:41;100605.42;;;12.56;69.02
61474;BME280;53694;49.784;30.150;2023-09-08T03:10:42;100607.53;;;12.74;68.49
61474;BME280;53694;49.784;30.150;2023-09-08T03:11:44;100614.22;;;12.89;68.06
61474;BME280;53694;49.784;30.150;2023-09-08T03:12:45;100604.78;;;12.90;67.33
61474;BME280;53694;49.784;30.150;2023-09-08T03:13:47;100607.61;;;12.78;67.34
61474;BME280;53694;49.784;30.150;2023-09-08T03:14:49;100611.03;;;12.59;67.70
61474;BME280;53694;49.784;30.150;2023-09-08T03:15:50;100608.84;;;12.37;68.08
61474;BME280;53694;49.784;30.150;2023-09-08T03:16:52;100614.05;;;12.14;68.75
61474;BME280;53694;49.784;30.150;2023-09-08T03:17:55;100605.83;;;11.89;69.23
61474;BME280;53694;49.784;30.150;2023-09-08T03:18:56;100601.94;;;11.66;69.94
61474;BME280;53694;49.784;30.150;2023-09-08T03:19:58;100612.38;;;11.48;70.99
61474;BME280;53694;49.784;30.150;2023-09-08T03:21:00;100597.69;;;11.32;71.60
61474;BME280;53694;49.784;30.150;2023-09-08T03:22:01;100593.20;;;11.15;72.02
61474;BME280;53694;49.784;30.150;2023-09-08T03:23:03;100599.16;;;11.05;72.54
61474;BME280;53694;49.784;30.150;2023-09-08T03:24:05;100608.52;;;11.04;72.76
61474;BME280;53694;49.784;30.150;2023-09-08T03:25:08;100596.30;;;11.13;72.75
61474;BME280;53694;49.784;30.150;2023-09-08T03:26:10;100602.39;;;11.31;72.38
61474;BME280;53694;49.784;30.150;2023-09-08T03:27:12;100598.03;;;11.55;72.20
61474;BME280;53694;49.784;30.150;2023-09-08T03:28:15;100600.23;;;11.86;71.33
61474;BME280;53694;49.784;30.150;2023-09-08T03:29:16;100596.36;;;12.15;70.40
61474;BME280;53694;49.784;30.150;2023-09-08T03:30:18;100599.05;;;12.39;68.96
61474;BME280;53694;49.784;30.150;2023-09-08T03:31:20;100591.97;;;12.82;67.45
61474;BME280;53694;49.784;30.150;2023-09-08T03:32:21;100591.97;;;12.82;67.45
61474;BME280;53694;49.784;30.150;2023-09-08T03:33:23;100596.98;;;12.92;66.87
61474;BME280;53694;49.784;30.150;2023-09-08T03:34:24;100603.20;;;12.89;66.63
61474;BME280;53694;49.784;30.150;2023-09-08T03:35:26;100609.92;;;12.76;66.77
61474;BME280;53694;49.784;30.150;2023-09-08T03:36:27;100598.75;;;12.57;67.09
61474;BME280;53694;49.784;30.150;2023-09-08T03:37:29;100604.38;;;12.32;67.61
61474;BME280;53694;49.784;30.150;2023-09-08T03:38:30;100608.34;;;12.07;68.49
61474;BME280;53694;49.784;30.150;2023-09-08T03:39:32;100604.00;;;11.81;69.11
61474;BME280;53694;49.784;30.150;2023-09-08T03:40:34;100598.83;;;11.55;69.62
61474;BME280;53694;49.784;30.150;2023-09-08T03:41:35;100602.39;;;11.31;70.30
61474;BME280;53694;49.784;30.150;2023-09-08T03:42:37;100603.95;;;11.08;71.07
61474;BME280;53694;49.784;30.150;2023-09-08T03:43:38;100605.38;;;10.81;71.82
61474;BME280;53694;49.784;30.150;2023-09-08T03:44:40;100610.25;;;10.63;72.68
61474;BME280;53694;49.784;30.150;2023-09-08T03:45:41;100595.82;;;10.66;73.51
61474;BME280;53694;49.784;30.150;2023-09-08T03:46:43;100604.72;;;10.84;73.54
61474;BME280;53694;49.784;30.150;2023-09-08T03:47:44;100600.75;;;11.06;72.99
61474;BME280;53694;49.784;30.150;2023-09-08T03:48:45;100601.12;;;11.29;71.77
61474;BME280;53694;49.784;30.150;2023-09-08T03:49:47;100602.52;;;11.47;71.12
61474;BME280;53694;49.784;30.150;2023-09-08T03:50:49;100602.61;;;11.63;70.29
61474;BME280;53694;49.784;30.150;2023-09-08T03:51:50;100603.52;;;11.79;69.81
61474;BME280;53694;49.784;30.150;2023-09-08T03:52:52;100600.91;;;11.95;69.57
61474;BME280;53694;49.784;30.150;2023-09-08T03:53:53;100601.88;;;12.15;69.19
61474;BME280;53694;49.784;30.150;2023-09-08T03:54:55;100595.28;;;12.32;68.64
61474;BME280;53694;49.784;30.150;2023-09-08T03:55:57;100599.30;;;12.34;67.99
61474;BME280;53694;49.784;30.150;2023-09-08T03:56:58;100599.09;;;12.27;68.05
61474;BME280;53694;49.784;30.150;2023-09-08T03:58:00;100605.48;;;12.03;68.32
61474;BME280;53694;49.784;30.150;2023-09-08T03:59:01;100605.48;;;12.03;68.32
61474;BME280;53694;49.784;30.150;2023-09-08T04:00:04;100603.31;;;11.84;68.94
61474;BME280;53694;49.784;30.150;2023-09-08T04:01:06;100604.21;;;11.64;69.44
61474;BME280;53694;49.784;30.150;2023-09-08T04:02:08;100605.16;;;11.43;70.12
61474;BME280;53694;49.784;30.150;2023-09-08T04:03:11;100604.45;;;11.22;70.60
61474;BME280;53694;49.784;30.150;2023-09-08T04:04:12;100613.34;;;11.07;71.10
61474;BME280;53694;49.784;30.150;2023-09-08T04:05:14;100606.67;;;10.95;71.61
61474;BME280;53694;49.784;30.150;2023-09-08T04:06:16;100603.73;;;11.00;72.10
61474;BME280;53694;49.784;30.150;2023-09-08T04:07:17;100603.52;;;11.18;71.96
61474;BME280;53694;49.784;30.150;2023-09-08T04:08:18;100609.38;;;11.41;71.42
61474;BME280;53694;49.784;30.150;2023-09-08T04:09:20;100614.53;;;11.67;70.96
61474;BME280;53694;49.784;30.150;2023-09-08T04:10:22;100616.63;;;11.94;70.43
61474;BME280;53694;49.784;30.150;2023-09-08T04:11:23;100617.93;;;12.25;69.48
61474;BME280;53694;49.784;30.150;2023-09-08T04:12:25;100613.48;;;12.48;68.19
61474;BME280;53694;49.784;30.150;2023-09-08T04:13:26;100600.81;;;12.60;67.37
61474;BME280;53694;49.784;30.150;2023-09-08T04:14:28;100609.28;;;12.67;67.22
61474;BME280;53694;49.784;30.150;2023-09-08T04:15:29;100607.92;;;12.61;67.36
61474;BME280;53694;49.784;30.150;2023-09-08T04:16:30;100612.34;;;12.49;67.52
61474;BME280;53694;49.784;30.150;2023-09-08T04:17:32;100610.22;;;12.31;68.10
61474;BME280;53694;49.784;30.150;2023-09-08T04:18:33;100609.62;;;11.85;69.29
61474;BME280;53694;49.784;30.150;2023-09-08T04:19:35;100609.62;;;11.85;69.29
61474;BME280;53694;49.784;30.150;2023-09-08T04:20:37;100613.73;;;11.66;70.10
61474;BME280;53694;49.784;30.150;2023-09-08T04:21:40;100615.45;;;11.46;70.94
61474;BME280;53694;49.784;30.150;2023-09-08T04:22:42;100610.88;;;11.26;71.60
61474;BME280;53694;49.784;30.150;2023-09-08T04:23:44;100610.50;;;11.15;72.39
61474;BME280;53694;49.784;30.150;2023-09-08T04:24:46;100609.83;;;11.18;72.67
61474;BME280;53694;49.784;30.150;2023-09-08T04:25:47;100614.55;;;11.30;72.82
61474;BME280;53694;49.784;30.150;2023-09-08T04:26:49;100613.30;;;11.52;72.46
61474;BME280;53694;49.784;30.150;2023-09-08T04:27:51;100616.48;;;11.79;71.83
61474;BME280;53694;49.784;30.150;2023-09-08T04:28:52;100614.65;;;12.07;71.24
61474;BME280;53694;49.784;30.150;2023-09-08T04:29:54;100613.90;;;12.63;69.33
61474;BME280;53694;49.784;30.150;2023-09-08T04:30:56;100613.90;;;12.63;69.33
61474;BME280;53694;49.784;30.150;2023-09-08T04:31:57;100611.92;;;12.91;68.32
61474;BME280;53694;49.784;30.150;2023-09-08T04:32:59;100608.57;;;13.14;67.11
61474;BME280;53694;49.784;30.150;2023-09-08T04:34:00;100604.97;;;13.25;66.22
61474;BME280;53694;49.784;30.150;2023-09-08T04:35:02;100609.22;;;13.23;65.72
61474;BME280;53694;49.784;30.150;2023-09-08T04:36:05;100601.45;;;13.13;65.67
61474;BME280;53694;49.784;30.150;2023-09-08T04:37:07;100606.15;;;12.96;65.88
61474;BME280;53694;49.784;30.150;2023-09-08T04:38:08;100603.25;;;12.77;66.01
61474;BME280;53694;49.784;30.150;2023-09-08T04:39:10;100601.50;;;12.57;66.75
61474;BME280;53694;49.784;30.150;2023-09-08T04:40:12;100601.01;;;12.39;67.37
61474;BME280;53694;49.784;30.150;2023-09-08T04:41:13;100612.31;;;12.21;68.04
61474;BME280;53694;49.784;30.150;2023-09-08T04:42:15;100605.59;;;12.07;68.61
61474;BME280;53694;49.784;30.150;2023-09-08T04:43:17;100613.37;;;11.80;69.70
61474;BME280;53694;49.784;30.150;2023-09-08T04:44:18;100613.37;;;11.80;69.70
61474;BME280;53694;49.784;30.150;2023-09-08T04:45:20;100612.70;;;11.59;71.10
61474;BME280;53694;49.784;30.150;2023-09-08T04:46:21;100612.70;;;11.59;71.10
61474;BME280;53694;49.784;30.150;2023-09-08T04:47:23;100612.50;;;11.51;71.63
61474;BME280;53694;49.784;30.150;2023-09-08T04:48:24;100622.34;;;11.53;72.10
61474;BME280;53694;49.784;30.150;2023-09-08T04:49:26;100613.17;;;11.61;72.46
61474;BME280;53694;49.784;30.150;2023-09-08T04:50:27;100615.80;;;11.82;72.39
61474;BME280;53694;49.784;30.150;2023-09-08T04:51:28;100610.74;;;12.08;72.00
61474;BME280;53694;49.784;30.150;2023-09-08T04:52:30;100610.07;;;12.39;71.22
61474;BME280;53694;49.784;30.150;2023-09-08T04:53:31;100610.63;;;12.73;70.34
61474;BME280;53694;49.784;30.150;2023-09-08T04:54:33;100612.30;;;13.06;68.82
61474;BME280;53694;49.784;30.150;2023-09-08T04:55:34;100618.21;;;13.36;68.07
61474;BME280;53694;49.784;30.150;2023-09-08T04:56:37;100620.42;;;13.62;66.82
61474;BME280;53694;49.784;30.150;2023-09-08T04:57:39;100612.55;;;13.80;65.32
61474;BME280;53694;49.784;30.150;2023-09-08T04:58:41;100617.73;;;13.81;65.00
61474;BME280;53694;49.784;30.150;2023-09-08T04:59:42;100604.55;;;13.74;65.01
61474;BME280;53694;49.784;30.150;2023-09-08T05:00:44;100614.91;;;13.62;65.21
61474;BME280;53694;49.784;30.150;2023-09-08T05:01:47;100613.77;;;13.47;65.53
61474;BME280;53694;49.784;30.150;2023-09-08T05:02:48;100607.78;;;13.29;65.97
61474;BME280;53694;49.784;30.150;2023-09-08T05:03:50;100606.14;;;13.12;66.52
61474;BME280;53694;49.784;30.150;2023-09-08T05:04:51;100608.91;;;12.96;67.05
61474;BME280;53694;49.784;30.150;2023-09-08T05:05:53;100602.56;;;12.80;68.02
61474;BME280;53694;49.784;30.150;2023-09-08T05:06:54;100608.43;;;12.50;69.34
61474;BME280;53694;49.784;30.150;2023-09-08T05:07:56;100608.43;;;12.50;69.34
61474;BME280;53694;49.784;30.150;2023-09-08T05:08:59;100608.95;;;12.40;69.80
61474;BME280;53694;49.784;30.150;2023-09-08T05:10:00;100604.70;;;12.31;70.34
61474;BME280;53694;49.784;30.150;2023-09-08T05:11:02;100607.16;;;12.20;70.90
61474;BME280;53694;49.784;30.150;2023-09-08T05:12:04;100609.70;;;12.13;71.65
61474;BME280;53694;49.784;30.150;2023-09-08T05:13:05;100604.19;;;12.13;72.18
61474;BME280;53694;49.784;30.150;2023-09-08T05:14:07;100612.42;;;12.25;72.29
61474;BME280;53694;49.784;30.150;2023-09-08T05:15:09;100610.72;;;12.48;71.92
61474;BME280;53694;49.784;30.150;2023-09-08T05:16:10;100604.42;;;12.76;71.64
61474;BME280;53694;49.784;30.150;2023-09-08T05:17:12;100602.16;;;13.10;70.76
61474;BME280;53694;49.784;30.150;2023-09-08T05:18:14;100611.76;;;13.79;68.90
61474;BME280;53694;49.784;30.150;2023-09-08T05:19:15;100611.76;;;13.79;68.90
61474;BME280;53694;49.784;30.150;2023-09-08T05:20:17;100611.70;;;14.11;67.58
61474;BME280;53694;49.784;30.150;2023-09-08T05:21:18;100609.02;;;14.34;66.63
61474;BME280;53694;49.784;30.150;2023-09-08T05:22:20;100609.25;;;14.44;65.75
61474;BME280;53694;49.784;30.150;2023-09-08T05:23:22;100604.45;;;14.41;65.26